Etusivu
METAR-TAF:

METAR-TAF

Lentoasemat :

Al-Hasa, Saudi-Arabia

Leveyspiiri: 25-18N, Pituuspiiri: 049-29E, korkeus merenpinnasta: 179 m

Tämänhetkinen sää

Tämä raportti tehtiin 20 minuuttia sitten, kello 15.00 UTC
Tuuli 13 kn pohjoisen/luoteesta
Lämpötila 23°C
Kosteus 31%
Ilmanpaine 1012 hPa
Näkyvyys: 7000 m

METAR: OEAH 201500Z 34013KT 7000 NSC 23/05 Q1012 NOSIG

Aika: 18:20 (15:20 UTC)

Sääennuste

Tämä raportti tehtiin 4 tuntia ja 20 minuuttia sitten, kello 11.00 UTC
Ennuste voimassa 20. päivästä klo 12 UTC - 21. päivään klo 18 UTC
Tuuli 10 kn luoteesta puuskistuen 20 kn:hen
Näkyvyys: 7000 m
Muutamia pilviä 4000 ft:n korkeudessa
Ajoittain
20. päivästä klo 12 UTC - 20. päivään klo 16 UTC
Näkyvyys: 4000 m
laajalle levinnyttä pölyä, pölymyrsky

TAF: OEAH 201100Z 2012/2118 32010G20KT 7000 FEW040 TEMPO 2012/2016 4000 DU BLDU

Säähavainnot ja -ennusteet yli 4000 lentoasemalta (METAR- ja TAF-raportit).

Käytössä olevat sääasemat on merkitty karttaan keltaisilla ja punaisilla pisteillä.

Aseta hiiri pisteen päälle nähdäksesi sääaseman nimen.

Klikkaa sitten nähdäksesi säähavainnot ja -ennusteet.

Kartan vaihtaminen: klikkaa mustalla rastilla varustettuja vihreitä pisteitä, niin voit zoomata sisään; viivalla varustettua vihreää pistettä, niin voit zoomata ulos tai vihreitä nuolia, niin pääset viereisille kartoille.


METAR-TAF: